Webcam Meteoipassi more information Webcam Meteoipassi


Pisa torre orologio more information Pisa torre orologio


altri nostri siti meteo:

Pomeziameteo 1Sito sul meteo

Pomeziameteo DashboardSito sul meteo

Caput FrigorisSito sul meteo

BarcellonameteoSito sul meteo

MeteoipassiSito sul meteo

ViterbometeoSito sul meteo

MeteotortoretoSito sul meteo

TortoretometeolidoSito sul meteo

MeteoGonzagaSito sul meteo



Nessuna attenzione particolare richiesta.    Non ci sono allerte meteo

Report METAR

   
LIRQ - Firenze
Dati ricevuti: Feb 19 2020 1:50 pm
Parzialmente nuvoloso  
Parzialmente nuvoloso  
   Vento: West 11.1 km/h
Vento: West 11.1 km/h
Temperatura: 14°C
P.to Rugiada: 8°C
Umidita: 67%
Barometro: 1019 hPa
Nuvole: Parzialmente nuvoloso
Visibilita: oltre 10 km
dettagli cloud: Parzialmente nuvoloso 914.4 m
LIRQ 191250Z 28006KT 9999 SCT030 14/08 Q1019
LIRP - Lucca
Dati ricevuti: Feb 19 2020 1:45 pm
Parzialmente nuvoloso  
Parzialmente nuvoloso  
   Vento: West 20.4 km/h
Vento: West 20.4 km/h
Temperatura: 14°C
P.to Rugiada: 10°C
Umidita: 77%
Barometro: 1020 hPa
Nuvole: Parzialmente nuvoloso
Visibilita: oltre 10 km
dettagli cloud: Parzialmente nuvoloso 609.6 m
LIRP 191245Z 27011KT 9999 SCT020 14/10 Q1020 NOSIG
LIRP - Livorno
Dati ricevuti: Feb 19 2020 1:45 pm
Parzialmente nuvoloso  
Parzialmente nuvoloso  
   Vento: West 20.4 km/h
Vento: West 20.4 km/h
Temperatura: 14°C
P.to Rugiada: 10°C
Umidita: 77%
Barometro: 1020 hPa
Nuvole: Parzialmente nuvoloso
Visibilita: oltre 10 km
dettagli cloud: Parzialmente nuvoloso 609.6 m
LIRP 191245Z 27011KT 9999 SCT020 14/10 Q1020 NOSIG
LIMP - Parma
Dati ricevuti: Feb 19 2020 12:50 pm
Nebbia, Parzialmente nuvoloso  
Nebbia, Parzialmente nuvoloso  
   Vento: Variabile 5.6 km/h
Vento: Variabile 5.6 km/h
Temperatura: 13°C
P.to Rugiada: 12°C
Umidita: 94%
Barometro: 1020 hPa
Nuvole: Parzialmente nuvoloso
Visibilita: 5 km
dettagli cloud: Parzialmente nuvoloso
LIMP 191150Z VRB03KT 5000 BR NSC 13/12 Q1020
LIRF - Roma
Dati ricevuti: Feb 19 2020 1:50 pm
Parzialmente nuvoloso  
Parzialmente nuvoloso  
   Vento: West 20.4 km/h
Vento: West 20.4 km/h
Temperatura: 15°C
P.to Rugiada: 8°C
Umidita: 63%
Barometro: 1019 hPa
Nuvole: Parzialmente nuvoloso
Visibilita: oltre 10 km
dettagli cloud: Parzialmente nuvoloso 914.4 m
LIRF 191250Z 26011KT 9999 SCT030 15/08 Q1019 NOSIG
 

Script sviluppato da  Saratoga-weather.org Adattato per il modello da  Weerstation Leuven

Potete trovare le nostre info meteo anche a:

European Weather Network

Weather Underground

AWEKAS

HAMweather, WeatherForYou, PWS Weather

Strumentazione usata:

Stazione meteo
Oregon Scientific WMR88

Programma gestore dati meteo
WVIEW

Server per i dati meteo
WDS-5

Provider
Anemos WDS-5

Oregon Scientific WMR88

WVIEW

WDS-5

Anemos WDS-5